Time;durP1;ratioP1;P1;durP2;ratioP2;P2;SDS_P1;SDS_P2;PMS_P1;PMS_P2;Temp;Humidity;BMP_temperature;BMP_pressure;BME280_temperature;BME280_humidity;BME280_pressure;Samples;Min_cycle;Max_cycle;Signal;HPM_P1;HPM_P2
2022/10/24 02:39:33;;;;;;;5.90;1.65;;;;;;;12.82;100.00;100237.03;6234308;22;20047;-93
2022/10/24 02:42:07;;;;;;;4.72;1.80;;;;;;;12.82;100.00;100226.28;6216519;23;20621;-94
2022/10/24 02:48:18;;;;;;;8.98;1.20;;;;;;;13.00;100.00;100243.53;6223512;23;20016;-93
2022/10/24 02:50:44;;;;;;;7.45;1.23;;;;;;;13.06;100.00;100220.06;6257295;23;20030;-92
2022/10/24 02:53:13;;;;;;;3.73;1.20;;;;;;;13.11;100.00;100241.50;6254956;23;20280;-94
2022/10/24 02:56:42;;;;;;;3.28;1.05;;;;;;;13.13;100.00;100242.84;6258441;23;20021;-94
2022/10/24 03:25:24;;;;;;;8.93;1.40;;;;;;;13.18;100.00;100239.28;6267373;22;20070;-96
2022/10/24 03:46:05;;;;;;;11.60;1.70;;;;;;;13.03;100.00;100211.50;6268040;22;20000;-96
2022/10/24 03:53:12;;;;;;;5.50;1.48;;;;;;;12.98;100.00;100199.97;6146728;23;20370;-96
2022/10/24 03:55:43;;;;;;;4.82;1.30;;;;;;;13.10;100.00;100219.19;6107517;23;20004;-96
2022/10/24 04:03:21;;;;;;;4.97;1.40;;;;;;;13.29;100.00;100234.56;6211817;22;20016;-96
2022/10/24 04:05:58;;;;;;;;;;;;;;;;;;;;;
2022/10/24 04:08:27;;;;;;;6.37;1.40;;;;;;;13.14;100.00;100214.84;6227023;23;20011;-96
2022/10/24 04:11:10;;;;;;;;;;;;;;;;;;;;;
2022/10/24 04:13:39;;;;;;;3.78;1.40;;;;;;;13.22;100.00;100221.47;6262949;23;19992;-94
2022/10/24 04:16:05;;;;;;;9.10;1.30;;;;;;;13.32;100.00;100242.06;6223119;22;20040;-95
2022/10/24 04:18:32;;;;;;;6.57;1.25;;;;;;;13.19;100.00;100219.34;6250234;22;20008;-96
2022/10/24 04:20:58;;;;;;;10.38;1.60;;;;;;;13.25;100.00;100209.31;6230508;23;20007;-96
2022/10/24 04:44:05;;;;;;;3.78;1.10;;;;;;;13.24;100.00;100226.53;6187606;22;20056;-96
2022/10/24 04:46:31;;;;;;;7.60;1.57;;;;;;;13.10;100.00;100208.44;6221869;23;20030;-96
2022/10/24 04:48:56;;;;;;;5.97;1.30;;;;;;;13.18;100.00;100221.22;6245518;22;20008;-96
2022/10/24 04:51:34;;;;;;;5.23;1.50;;;;;;;13.20;100.00;100220.13;6185737;23;20020;-96
2022/10/24 05:34:49;;;;;;;11.67;1.97;;;;;;;13.81;100.00;100266.13;6256012;22;20019;-96
2022/10/24 05:41:14;;;;;;;8.57;1.60;;;;;;;13.85;100.00;100243.69;6255394;23;20042;-96
2022/10/24 05:43:39;;;;;;;7.53;1.02;;;;;;;13.93;100.00;100256.50;6245011;23;20004;-96
2022/10/24 05:46:06;;;;;;;11.03;1.50;;;;;;;13.97;99.40;100245.94;6260937;23;20000;-96
2022/10/24 05:59:35;;;;;;;8.20;1.17;;;;;;;13.85;99.12;100240.22;6146373;22;20071;-96
2022/10/24 06:22:15;;;;;;;7.18;1.30;;;;;;;13.83;100.00;100277.41;6146320;22;20050;-96
2022/10/24 06:24:41;;;;;;;11.55;1.55;;;;;;;13.73;99.39;100260.31;6179551;23;20039;-93
2022/10/24 06:27:24;;;;;;;14.43;1.70;;;;;;;13.74;100.00;100264.59;6152871;23;20044;-93
2022/10/24 06:30:03;;;;;;;12.32;1.48;;;;;;;13.75;100.00;100278.88;6155611;23;20033;-94
2022/10/24 06:32:54;;;;;;;11.48;1.65;;;;;;;13.59;100.00;100254.06;6153966;23;20060;-95
2022/10/24 06:35:59;;;;;;;8.65;1.40;;;;;;;13.58;100.00;100257.84;6153464;23;20001;-93
2022/10/24 06:38:25;;;;;;;8.80;1.40;;;;;;;13.53;100.00;100266.81;6063617;23;20007;-94
2022/10/24 06:41:21;;;;;;;8.97;1.30;;;;;;;13.63;100.00;100290.09;6138469;23;20012;-93
2022/10/24 06:43:52;;;;;;;12.63;1.60;;;;;;;13.43;100.00;100261.56;6155740;23;20002;-92
2022/10/24 06:46:34;;;;;;;14.50;1.55;;;;;;;13.47;100.00;100279.53;6155464;23;20037;-94
2022/10/24 06:48:59;;;;;;;12.43;1.50;;;;;;;13.56;100.00;100305.78;6153874;23;20005;-91
2022/10/24 06:51:33;;;;;;;8.53;1.40;;;;;;;13.46;100.00;100298.66;6152107;23;20001;-88
2022/10/24 06:53:58;;;;;;;9.35;1.60;;;;;;;13.61;100.00;100325.34;6154229;23;19998;-89
2022/10/24 06:59:21;;;;;;;9.13;1.33;;;;;;;13.58;100.00;100295.53;6191080;22;20353;-88
2022/10/24 07:01:53;;;;;;;9.68;1.40;;;;;;;13.72;100.00;100315.25;6215113;23;20624;-89
2022/10/24 07:04:18;;;;;;;9.75;1.30;;;;;;;13.93;100.00;100333.81;6216050;23;20031;-88
2022/10/24 07:06:44;;;;;;;12.10;1.40;;;;;;;14.01;100.00;100325.06;6216440;23;20058;-87
2022/10/24 07:19:30;;;;;;;12.60;1.65;;;;;;;13.59;100.00;100313.28;6206485;22;20023;-87
2022/10/24 07:32:13;;;;;;;14.43;1.67;;;;;;;13.80;100.00;100351.47;6174386;23;20024;-91
2022/10/24 07:34:39;;;;;;;7.57;1.20;;;;;;;14.12;100.00;100368.81;6181629;23;20009;-81
2022/10/24 13:19:12;;;;;;;9.87;1.33;;;;;;;17.56;76.57;100620.81;6148478;23;20020;-86
2022/10/24 13:22:25;;;;;;;7.27;1.47;;;;;;;17.35;78.13;100617.78;6148661;23;20249;-86
2022/10/24 13:25:59;;;;;;;;;;;;;;;;;;;;;
2022/10/24 13:29:07;;;;;;;6.22;1.52;;;;;;;17.07;80.48;100622.56;6211464;23;20461;-86
2022/10/24 13:31:35;;;;;;;12.38;1.85;;;;;;;16.95;81.92;100632.00;6210623;23;20066;-84
2022/10/24 13:34:43;;;;;;;9.60;1.52;;;;;;;16.72;84.81;100625.72;6212335;23;20654;-85
2022/10/24 13:37:53;;;;;;;8.65;1.40;;;;;;;16.69;86.14;100642.56;6211141;23;20015;-85
2022/10/24 13:40:46;;;;;;;7.18;1.40;;;;;;;16.54;89.79;100629.38;6212002;23;20000;-85
2022/10/24 13:43:29;;;;;;;7.17;1.70;;;;;;;16.03;92.34;100605.75;6212354;23;20000;-85
2022/10/24 13:46:22;;;;;;;7.68;1.40;;;;;;;15.96;94.39;100635.09;6211416;22;20058;-85
2022/10/24 13:49:08;;;;;;;9.93;1.55;;;;;;;15.63;94.17;100626.19;6214519;23;20015;-87
2022/10/24 13:51:33;;;;;;;7.25;1.42;;;;;;;15.55;95.10;100623.06;6214862;23;20000;-86
2022/10/24 13:54:53;;;;;;;6.53;1.27;;;;;;;15.53;95.19;100621.78;6215053;23;20083;-86
2022/10/24 13:58:28;;;;;;;;;;;;;;;;;;;;;
2022/10/24 14:05:01;;;;;;;6.82;1.15;;;;;;;15.60;95.46;100631.09;6118772;23;20029;-87
2022/10/24 14:15:01;;;;;;;5.27;1.23;;;;;;;15.99;92.28;100620.16;6020462;23;20260;-86
2022/10/24 14:18:00;;;;;;;5.82;1.05;;;;;;;16.00;91.75;100629.88;6046277;23;20007;-85
2022/10/24 14:20:36;;;;;;;9.23;1.20;;;;;;;16.09;91.29;100619.19;6088260;23;20021;-85
2022/10/24 14:23:55;;;;;;;5.47;1.27;;;;;;;16.29;89.50;100645.81;6169380;23;20080;-86
2022/10/24 14:26:30;;;;;;;7.03;1.30;;;;;;;16.25;89.23;100641.31;6183172;23;20005;-85
2022/10/24 14:29:04;;;;;;;7.75;1.20;;;;;;;16.12;88.83;100623.97;6178893;23;20095;-86
2022/10/24 14:41:52;;;;;;;5.85;1.20;;;;;;;16.08;86.99;100653.50;6095406;23;20017;-85
2022/10/24 14:44:20;;;;;;;5.50;1.08;;;;;;;16.10;86.93;100654.00;6098681;23;20430;-86
2022/10/24 14:47:34;;;;;;;3.42;1.05;;;;;;;16.15;87.01;100655.81;6114201;23;20014;-86
2022/10/24 14:51:03;;;;;;;6.47;1.27;;;;;;;16.15;85.65;100667.44;6086670;23;20183;-85
2022/10/24 14:55:25;;;;;;;;;;;;;;;;;;;;;
2022/10/24 15:20:28;;;;;;;5.17;1.40;;;;;;;15.51;91.43;100683.38;6089250;23;20018;-85
2022/10/24 15:22:58;;;;;;;6.80;1.10;;;;;;;15.40;92.60;100677.31;6111917;23;20780;-85
2022/10/24 16:19:08;;;;;;;6.05;1.70;;;;;;;13.84;100.00;100731.44;6120771;23;20044;-86
2022/10/24 16:22:29;;;;;;;14.88;4.32;;;;;;;13.83;100.00;100740.59;6047776;23;20092;-88
2022/10/24 16:25:41;;;;;;;8.37;2.00;;;;;;;13.80;100.00;100738.47;6119824;23;20017;-87
2022/10/24 16:29:16;;;;;;;7.97;1.40;;;;;;;13.71;100.00;100724.81;6120900;23;20308;-87
2022/10/24 16:32:25;;;;;;;6.90;1.52;;;;;;;13.91;100.00;100748.88;6021039;23;20081;-87
2022/10/24 16:37:27;;;;;;;8.70;1.38;;;;;;;13.89;100.00;100739.47;6214384;22;20017;-87
2022/10/24 16:54:15;;;;;;;3.97;1.17;;;;;;;12.95;100.00;100744.59;6217064;22;20386;-85
2022/10/24 16:56:51;;;;;;;2.87;1.13;;;;;;;12.95;100.00;100766.13;6212383;23;20248;-86
2022/10/24 16:59:35;;;;;;;6.78;1.20;;;;;;;12.66;100.00;100745.25;6212465;23;20099;-86
2022/10/24 17:02:00;;;;;;;3.78;1.00;;;;;;;12.57;100.00;100746.88;6211668;23;20079;-85
2022/10/24 17:04:29;;;;;;;8.27;1.00;;;;;;;12.56;100.00;100758.72;6212080;23;20035;-84
2022/10/24 17:07:03;;;;;;;4.68;0.80;;;;;;;12.38;100.00;100742.09;6211994;23;20005;-85
2022/10/24 17:56:20;;;;;;;6.10;1.50;;;;;;;12.85;100.00;100809.97;6221113;22;20330;-92
2022/10/24 19:12:32;;;;;;;9.25;2.00;;;;;;;12.24;100.00;100802.81;6214179;23;20072;-92
